Time;durP1;ratioP1;P1;durP2;ratioP2;P2;SDS_P1;SDS_P2;PMS_P1;PMS_P2;Temp;Humidity;BMP_temperature;BMP_pressure;BME280_temperature;BME280_humidity;BME280_pressure;Samples;Min_cycle;Max_cycle;Signal;HPM_P1;HPM_P2
2022/09/19 00:02:49;;;;;;;8.32;1.50;;;;;;;12.06;100.00;99017.78;4978408;28;20312;-96
2022/09/19 00:08:51;;;;;;;8.75;1.35;;;;;;;11.96;100.00;99013.56;4990131;28;20038;-95
2022/09/19 00:12:00;;;;;;;6.03;1.27;;;;;;;11.95;100.00;99017.94;4970841;28;20043;-95
2022/09/19 00:14:51;;;;;;;5.70;1.88;;;;;;;11.91;100.00;99004.84;4972735;28;20030;-95
2022/09/19 00:17:42;;;;;;;7.47;1.40;;;;;;;11.84;100.00;99013.66;4969924;28;20066;-94
2022/09/19 00:20:33;;;;;;;7.88;1.73;;;;;;;11.90;100.00;99003.13;4970263;28;20113;-95
2022/09/19 00:26:27;;;;;;;6.28;1.65;;;;;;;11.89;100.00;98997.03;4991807;28;20098;-95
2022/09/19 00:29:19;;;;;;;8.70;2.00;;;;;;;11.76;100.00;98992.81;4991538;28;20046;-96
2022/09/19 00:32:11;;;;;;;6.25;2.03;;;;;;;12.06;100.00;99011.72;4963106;28;20038;-94
2022/09/19 00:35:08;;;;;;;7.47;1.55;;;;;;;11.93;100.00;98996.13;4976671;28;20042;-95
2022/09/19 00:38:15;;;;;;;5.15;1.55;;;;;;;11.95;100.00;98990.91;4979526;28;20133;-95
2022/09/19 00:40:57;;;;;;;6.47;1.80;;;;;;;11.89;100.00;98990.97;4915809;29;20155;-96
2022/09/19 00:44:05;;;;;;;7.53;2.00;;;;;;;11.92;100.00;99003.97;4917369;29;20127;-96
2022/09/19 00:46:55;;;;;;;6.95;2.22;;;;;;;11.84;100.00;98991.00;4917854;29;20120;-96
2022/09/19 00:49:41;;;;;;;6.38;2.20;;;;;;;11.86;100.00;98984.00;4916675;29;20048;-95
2022/09/19 00:52:29;;;;;;;9.63;2.17;;;;;;;11.94;100.00;98989.16;4900802;29;20044;-95
2022/09/19 00:55:24;;;;;;;;;;;;;;;;;;;;;
2022/09/19 00:58:25;;;;;;;8.13;1.95;;;;;;;11.95;100.00;99002.25;4920393;29;20043;-96
2022/09/19 01:01:24;;;;;;;6.97;1.92;;;;;;;11.87;100.00;98993.59;4903834;29;20048;-95
2022/09/19 01:03:53;;;;;;;5.68;1.70;;;;;;;11.85;100.00;98989.25;4876306;29;20044;-96
2022/09/19 01:06:51;;;;;;;7.43;1.90;;;;;;;11.83;100.00;99018.03;4913796;29;20051;-95
2022/09/19 01:09:38;;;;;;;11.05;2.00;;;;;;;11.76;100.00;99005.88;4900977;29;20044;-95
2022/09/19 01:12:37;;;;;;;7.70;1.80;;;;;;;11.90;100.00;99005.72;4918000;29;20051;-95
2022/09/19 01:15:53;;;;;;;7.75;1.98;;;;;;;11.88;100.00;99003.13;4938789;29;20036;-96
2022/09/19 01:18:46;;;;;;;7.30;2.35;;;;;;;11.75;100.00;98991.09;4981565;28;20022;-95
2022/09/19 01:22:14;;;;;;;6.05;1.70;;;;;;;11.78;100.00;98991.06;5010223;28;20026;-95
2022/09/19 01:25:41;;;;;;;;;;;;;;;;;;;;;
2022/09/19 01:31:39;;;;;;;6.72;1.83;;;;;;;11.76;100.00;98987.59;4898008;29;20089;-95
2022/09/19 01:34:38;;;;;;;6.65;1.60;;;;;;;11.84;100.00;98998.81;4888374;29;20115;-95
2022/09/19 01:37:47;;;;;;;7.05;1.85;;;;;;;11.87;100.00;98995.31;4867864;29;20088;-96
2022/09/19 01:40:27;;;;;;;8.25;1.70;;;;;;;11.75;100.00;98993.72;4883182;29;20039;-96
2022/09/19 01:43:26;;;;;;;6.45;2.10;;;;;;;11.69;100.00;98981.59;4879331;29;20108;-96
2022/09/19 01:46:09;;;;;;;10.55;2.35;;;;;;;11.82;100.00;98998.00;4867609;29;20045;-95
2022/09/19 01:49:37;;;;;;;6.20;1.80;;;;;;;11.63;100.00;98989.47;4871076;29;20051;-94
2022/09/19 01:52:56;;;;;;;8.15;1.73;;;;;;;11.56;100.00;98986.03;4822338;29;20070;-94
2022/09/19 01:56:19;;;;;;;8.88;2.58;;;;;;;11.45;100.00;98990.50;4826000;29;20106;-95
2022/09/19 01:59:33;;;;;;;8.38;2.38;;;;;;;11.60;100.00;98979.91;4819761;29;20046;-95
2022/09/19 02:02:34;;;;;;;7.57;2.50;;;;;;;11.75;100.00;98985.88;4945767;23;20522;-91
2022/09/19 02:05:21;;;;;;;9.95;2.80;;;;;;;11.78;100.00;98986.69;4976904;28;20038;-91
2022/09/19 02:08:23;;;;;;;7.93;2.67;;;;;;;11.69;100.00;98988.53;4979551;28;21548;-92
2022/09/19 02:11:00;;;;;;;9.10;3.08;;;;;;;11.69;100.00;98988.53;4965264;28;20050;-90
2022/09/19 02:13:29;;;;;;;13.48;3.33;;;;;;;11.71;100.00;98997.22;4983449;28;20046;-92
2022/09/19 02:16:02;;;;;;;7.88;3.00;;;;;;;11.61;100.00;98989.47;4981220;28;20152;-91
2022/09/19 02:18:43;;;;;;;9.27;2.97;;;;;;;11.56;100.00;98990.41;4985338;28;20161;-91
2022/09/19 02:21:15;;;;;;;7.70;2.58;;;;;;;11.50;100.00;98991.31;4983957;28;20026;-91
2022/09/19 02:23:47;;;;;;;9.90;3.00;;;;;;;11.60;100.00;98987.75;4998680;28;20038;-92
2022/09/19 02:26:17;;;;;;;8.98;3.05;;;;;;;11.66;100.00;98981.59;4994840;28;20093;-93
2022/09/19 02:28:44;;;;;;;8.52;2.72;;;;;;;11.70;100.00;98978.06;4984609;28;20033;-91
2022/09/19 02:31:12;;;;;;;9.57;2.90;;;;;;;11.46;100.00;98987.00;4977865;28;20057;-92
2022/09/19 02:33:39;;;;;;;8.65;3.30;;;;;;;11.49;100.00;98986.13;4984657;28;20034;-91
2022/09/19 02:36:13;;;;;;;10.70;3.58;;;;;;;11.48;100.00;98990.47;4982000;28;20566;-92
2022/09/19 02:38:54;;;;;;;12.75;3.40;;;;;;;11.53;100.00;98996.53;4982779;28;20041;-92
2022/09/19 02:41:36;;;;;;;7.55;2.90;;;;;;;11.59;100.00;98982.53;4980873;28;20034;-91
2022/09/19 02:44:19;;;;;;;8.82;2.90;;;;;;;11.58;100.00;98992.13;4992828;28;20927;-92
2022/09/19 02:46:47;;;;;;;;;;;;;;;11.55;100.00;98999.09;4983527;28;20105;-91
2022/09/19 02:49:53;;;;;;;7.10;2.70;;;;;;;11.54;100.00;98987.81;4982979;28;19949;-90
2022/09/19 02:52:28;;;;;;;11.23;3.38;;;;;;;11.57;100.00;98982.53;4981286;28;20026;-91
2022/09/19 02:55:02;;;;;;;10.75;3.17;;;;;;;11.62;100.00;98992.94;4985302;28;20034;-93
2022/09/19 02:57:30;;;;;;;10.48;3.20;;;;;;;11.60;100.00;98982.50;4985066;28;20030;-91
2022/09/19 02:59:59;;;;;;;8.02;2.80;;;;;;;11.44;100.00;98980.94;4994385;28;20097;-91
2022/09/19 03:02:34;;;;;;;10.05;2.83;;;;;;;11.47;100.00;98980.03;5006553;28;20339;-92
2022/09/19 03:05:13;;;;;;;7.78;2.50;;;;;;;11.47;100.00;98985.25;4989233;28;20023;-91
2022/09/19 03:08:15;;;;;;;8.70;2.80;;;;;;;11.08;100.00;98980.38;4976654;28;20135;-92
2022/09/19 03:10:48;;;;;;;7.40;2.47;;;;;;;11.30;100.00;98981.06;4994804;28;20026;-91
2022/09/19 03:13:13;;;;;;;7.03;2.17;;;;;;;11.19;100.00;98978.53;5006036;28;20275;-92
2022/09/19 03:15:51;;;;;;;5.93;1.80;;;;;;;11.24;100.00;98971.50;4990615;28;20042;-92
2022/09/19 03:18:21;;;;;;;8.75;2.10;;;;;;;11.26;100.00;98968.91;4983458;28;20074;-91
2022/09/19 03:20:51;;;;;;;6.28;2.13;;;;;;;11.30;100.00;98973.25;4980736;28;20109;-90
2022/09/19 03:23:39;;;;;;;7.80;2.28;;;;;;;11.07;100.00;98960.38;4979721;28;20487;-91
2022/09/19 03:26:11;;;;;;;8.40;2.42;;;;;;;11.11;100.00;98969.91;4982248;28;20153;-92
2022/09/19 03:28:38;;;;;;;8.07;2.22;;;;;;;11.31;100.00;98974.94;4983983;28;20113;-91
2022/09/19 03:31:07;;;;;;;8.80;2.10;;;;;;;11.30;100.00;98968.00;4987496;28;20058;-92
2022/09/19 03:33:32;;;;;;;7.45;2.33;;;;;;;11.35;100.00;98974.03;4986319;28;20022;-92
2022/09/19 03:35:59;;;;;;;7.10;2.47;;;;;;;11.25;100.00;98967.19;4985552;28;20398;-92
2022/09/19 03:38:24;;;;;;;7.38;2.40;;;;;;;11.49;100.00;98968.69;4986313;28;20494;-92
2022/09/19 03:40:50;;;;;;;8.18;2.65;;;;;;;11.35;100.00;98975.81;4986224;28;20036;-91
2022/09/19 03:43:16;;;;;;;10.27;2.72;;;;;;;11.30;100.00;98969.75;4993412;28;20030;-91
2022/09/19 03:45:41;;;;;;;9.85;2.67;;;;;;;11.27;100.00;98974.13;4985694;28;20125;-91
2022/09/19 03:48:07;;;;;;;7.93;2.47;;;;;;;11.15;100.00;98969.00;4987989;28;20506;-91
2022/09/19 03:50:33;;;;;;;9.07;2.75;;;;;;;11.24;100.00;98976.72;4987586;28;20097;-91
2022/09/19 03:52:59;;;;;;;7.30;2.50;;;;;;;11.22;100.00;98972.44;4985990;28;20042;-91
2022/09/19 03:55:25;;;;;;;9.60;2.47;;;;;;;11.07;100.00;98974.25;4987385;28;20034;-91
2022/09/19 03:57:50;;;;;;;8.40;2.30;;;;;;;11.20;100.00;98975.06;4986661;28;20088;-92
2022/09/19 04:00:16;;;;;;;8.60;2.50;;;;;;;11.27;100.00;98975.84;4984881;28;20375;-91
2022/09/19 04:02:42;;;;;;;9.18;2.45;;;;;;;11.45;100.00;98972.22;4985377;28;20073;-91
2022/09/19 04:05:08;;;;;;;7.05;2.30;;;;;;;11.14;100.00;98976.84;4987669;28;20035;-91
2022/09/19 04:07:34;;;;;;;8.55;2.35;;;;;;;11.21;100.00;98971.53;4981655;28;20037;-91
2022/09/19 04:10:00;;;;;;;8.75;2.72;;;;;;;11.19;100.00;98970.72;5000154;28;20033;-91
2022/09/19 04:12:25;;;;;;;7.40;2.75;;;;;;;11.59;100.00;98975.59;4982261;28;20034;-91
2022/09/19 04:14:51;;;;;;;9.55;3.10;;;;;;;11.30;100.00;98977.56;4984682;28;20040;-90
2022/09/19 04:17:17;;;;;;;7.60;2.78;;;;;;;11.31;100.00;98987.16;4986121;28;20060;-91
2022/09/19 04:19:42;;;;;;;9.35;2.83;;;;;;;11.37;100.00;98981.84;4982913;28;20030;-90
2022/09/19 04:22:09;;;;;;;10.93;2.88;;;;;;;11.43;100.00;98982.69;4987016;28;20033;-91
2022/09/19 04:24:42;;;;;;;9.30;2.63;;;;;;;11.31;100.00;98979.31;4987198;28;20048;-92
2022/09/19 04:27:10;;;;;;;9.25;2.88;;;;;;;11.34;100.00;98979.28;4985238;28;20030;-92
2022/09/19 04:29:36;;;;;;;9.23;2.90;;;;;;;11.51;100.00;98969.56;4984485;28;20144;-92
2022/09/19 04:32:04;;;;;;;9.30;3.00;;;;;;;11.44;100.00;98983.56;4983443;28;20137;-91
2022/09/19 04:34:30;;;;;;;9.80;2.83;;;;;;;11.38;100.00;98984.44;4986186;28;20117;-91
2022/09/19 04:36:57;;;;;;;9.55;3.00;;;;;;;11.48;100.00;98985.22;4983091;28;20137;-92
2022/09/19 04:39:24;;;;;;;11.73;3.10;;;;;;;11.31;100.00;98982.78;4998888;28;20053;-92
2022/09/19 04:41:52;;;;;;;11.25;2.65;;;;;;;11.42;100.00;98985.31;4983646;28;20085;-92
2022/09/19 04:44:27;;;;;;;12.20;3.10;;;;;;;11.41;100.00;98984.44;4999331;28;20066;-91
2022/09/19 04:46:52;;;;;;;11.93;3.08;;;;;;;11.47;100.00;98987.88;4984382;28;20045;-91
2022/09/19 04:49:18;;;;;;;8.25;2.95;;;;;;;11.50;100.00;98985.25;4982570;28;20026;-93
2022/09/19 04:51:44;;;;;;;10.48;3.10;;;;;;;11.35;100.00;98981.03;4981773;28;20041;-91
2022/09/19 04:54:10;;;;;;;9.52;2.75;;;;;;;11.21;100.00;98987.22;4981652;28;20057;-92
2022/09/19 04:56:36;;;;;;;7.68;2.20;;;;;;;11.21;100.00;98987.22;4979913;28;20178;-92
2022/09/19 04:59:03;;;;;;;7.57;2.50;;;;;;;11.17;100.00;98968.97;4985996;28;20117;-93
2022/09/19 05:01:30;;;;;;;7.20;2.60;;;;;;;11.09;100.00;98971.63;4990010;28;20064;-92
2022/09/19 05:03:57;;;;;;;10.30;2.80;;;;;;;11.10;100.00;98978.59;4982718;28;20402;-92
2022/09/19 05:06:23;;;;;;;8.30;2.85;;;;;;;10.99;100.00;98970.00;4982984;28;20030;-92
2022/09/19 05:08:50;;;;;;;8.75;3.13;;;;;;;11.06;100.00;98977.78;4982105;28;20034;-92
2022/09/19 05:11:18;;;;;;;10.50;3.03;;;;;;;11.31;100.00;98981.91;4982448;28;20053;-92
2022/09/19 05:13:44;;;;;;;10.55;3.15;;;;;;;11.24;100.00;98975.88;4982663;28;20087;-91
2022/09/19 05:16:13;;;;;;;8.52;2.97;;;;;;;11.19;100.00;98980.25;4997541;28;20074;-92
2022/09/19 05:18:39;;;;;;;10.10;3.55;;;;;;;11.24;100.00;98981.97;5007159;28;20018;-92
2022/09/19 05:21:14;;;;;;;10.23;3.10;;;;;;;11.21;100.00;98974.16;4991661;28;20037;-91
2022/09/19 05:23:40;;;;;;;9.30;3.28;;;;;;;11.31;100.00;98968.88;4985959;28;20033;-91
2022/09/19 05:26:08;;;;;;;11.38;3.38;;;;;;;11.41;100.00;98973.13;5002473;28;20030;-92
2022/09/19 05:28:35;;;;;;;9.85;2.90;;;;;;;11.52;100.00;98971.28;5023285;28;20058;-92
2022/09/19 05:31:05;;;;;;;8.52;3.05;;;;;;;11.36;100.00;98977.53;4999326;28;20045;-90
2022/09/19 05:33:32;;;;;;;9.13;3.05;;;;;;;11.47;100.00;98980.03;4988581;28;20030;-92
2022/09/19 05:36:00;;;;;;;11.57;2.85;;;;;;;11.07;100.00;98976.03;4987071;28;20121;-92
2022/09/19 05:38:30;;;;;;;9.05;2.58;;;;;;;11.26;100.00;98968.91;4985307;28;20669;-92
2022/09/19 05:40:58;;;;;;;7.93;2.53;;;;;;;11.36;100.00;98987.97;5001830;28;20022;-92
2022/09/19 05:43:24;;;;;;;7.65;2.60;;;;;;;11.25;100.00;98981.09;4988898;28;20163;-92
2022/09/19 05:45:51;;;;;;;8.73;3.00;;;;;;;11.38;100.00;98976.63;4987183;28;20153;-92
2022/09/19 05:48:17;;;;;;;9.73;2.80;;;;;;;11.30;100.00;98985.41;4984675;28;20532;-91
2022/09/19 05:50:43;;;;;;;8.88;2.67;;;;;;;11.26;100.00;98992.41;4983490;28;20038;-92
2022/09/19 05:55:56;;;;;;;10.10;2.80;;;;;;;11.16;100.00;98990.75;4985528;28;20501;-91
2022/09/19 05:58:22;;;;;;;9.20;2.67;;;;;;;11.25;100.00;98981.09;4983030;28;20038;-92
2022/09/19 06:00:47;;;;;;;10.05;2.97;;;;;;;11.32;100.00;98991.50;4983767;28;20544;-91
2022/09/19 06:03:16;;;;;;;8.57;2.88;;;;;;;11.31;100.00;98989.75;4985566;28;20049;-91
2022/09/19 06:05:48;;;;;;;9.32;2.97;;;;;;;11.15;100.00;98986.38;4982595;28;20485;-91
2022/09/19 06:08:15;;;;;;;7.60;2.85;;;;;;;11.37;100.00;98998.41;4981441;28;20022;-91
2022/09/19 06:10:42;;;;;;;10.60;3.03;;;;;;;11.50;100.00;98999.16;4982113;28;20030;-92
2022/09/19 06:14:13;;;;;;;10.27;3.40;;;;;;;11.49;100.00;99001.78;4982069;28;20058;-91
2022/09/19 06:16:13;;;;;;;10.30;3.17;;;;;;;11.50;100.00;98999.16;4984400;28;20038;-92
2022/09/19 06:18:39;;;;;;;11.80;3.20;;;;;;;11.51;100.00;98998.28;4984149;28;20397;-91
2022/09/19 06:21:04;;;;;;;10.55;3.05;;;;;;;11.60;100.00;98999.94;4984305;28;20434;-93
2022/09/19 06:23:30;;;;;;;11.00;3.28;;;;;;;11.65;100.00;99005.13;4984898;28;20049;-91
2022/09/19 06:25:55;;;;;;;10.05;3.20;;;;;;;11.23;100.00;99008.97;4986666;28;20054;-92
2022/09/19 06:28:23;;;;;;;11.10;3.63;;;;;;;11.42;100.00;99007.06;4983135;28;20179;-91
2022/09/19 06:30:48;;;;;;;10.45;3.20;;;;;;;11.59;100.00;99013.88;4981046;28;20038;-93
2022/09/19 06:33:16;;;;;;;8.20;2.97;;;;;;;11.46;100.00;99020.97;4979518;28;20050;-93
2022/09/19 06:35:47;;;;;;;10.15;3.17;;;;;;;11.28;100.00;98999.34;4984142;28;20061;-92
2022/09/19 06:38:13;;;;;;;8.95;2.95;;;;;;;11.60;100.00;99010.41;4984975;28;20827;-92
2022/09/19 06:40:39;;;;;;;9.25;3.00;;;;;;;11.80;100.00;99020.63;4985849;28;20085;-92
2022/09/19 06:43:06;;;;;;;8.60;2.90;;;;;;;11.70;100.00;99022.47;4985707;28;20037;-93
2022/09/19 06:45:37;;;;;;;7.90;2.47;;;;;;;11.68;100.00;99026.00;4983907;28;20057;-92
2022/09/19 06:48:04;;;;;;;7.57;2.47;;;;;;;11.70;100.00;99017.25;4982130;28;20034;-91
2022/09/19 06:50:30;;;;;;;10.80;2.75;;;;;;;11.48;100.00;99008.75;4982085;28;20049;-92
2022/09/19 06:52:55;;;;;;;7.40;2.40;;;;;;;11.52;100.00;99006.97;4984057;28;20041;-92
2022/09/19 06:55:23;;;;;;;6.68;2.08;;;;;;;11.25;100.00;99011.56;4987019;28;20042;-90
2022/09/19 06:57:57;;;;;;;9.10;2.92;;;;;;;11.52;100.00;99013.06;4986894;28;20074;-91
2022/09/19 07:00:24;;;;;;;10.57;2.13;;;;;;;11.71;100.00;99018.13;4982865;28;21002;-92
2022/09/19 07:03:00;;;;;;;9.32;2.40;;;;;;;11.39;100.00;99027.13;4984138;28;20437;-92
2022/09/19 07:05:30;;;;;;;8.95;2.10;;;;;;;11.38;100.00;99026.22;4983945;28;20068;-92
2022/09/19 07:07:55;;;;;;;9.52;2.65;;;;;;;11.57;100.00;99029.56;4986371;28;20026;-92
2022/09/19 07:10:21;;;;;;;5.90;1.83;;;;;;;11.76;100.00;99035.50;4999387;28;20406;-91
2022/09/19 07:12:51;;;;;;;6.63;2.20;;;;;;;11.86;100.00;99038.88;4980304;28;20457;-93
2022/09/19 07:15:17;;;;;;;9.98;2.03;;;;;;;11.75;100.00;99032.91;4984105;28;20125;-92
2022/09/19 07:17:45;;;;;;;6.82;2.10;;;;;;;11.53;100.00;99032.22;4982701;28;20153;-92
2022/09/19 07:20:14;;;;;;;8.95;2.53;;;;;;;11.74;100.00;99039.84;4983098;28;20049;-92
2022/09/19 07:22:40;;;;;;;6.63;2.08;;;;;;;11.85;100.00;99038.91;4981054;28;20040;-91
2022/09/19 07:25:07;;;;;;;7.07;2.38;;;;;;;11.93;100.00;99055.38;4982952;28;20031;-91
2022/09/19 07:27:33;;;;;;;7.32;2.33;;;;;;;11.86;100.00;99044.13;5001457;28;20061;-92
2022/09/19 07:29:59;;;;;;;8.43;2.28;;;;;;;11.81;100.00;99050.28;4984540;28;20022;-91
2022/09/19 07:32:24;;;;;;;8.77;2.47;;;;;;;11.73;100.00;99050.31;4991206;28;20020;-93
2022/09/19 07:34:50;;;;;;;9.10;2.63;;;;;;;11.63;100.00;99056.53;5002053;28;20104;-92
2022/09/19 07:37:16;;;;;;;7.50;2.65;;;;;;;11.74;100.00;99054.69;4992628;28;20030;-93
2022/09/19 07:39:43;;;;;;;9.77;2.60;;;;;;;11.75;100.00;99054.66;4987859;28;20041;-92
2022/09/19 07:42:08;;;;;;;8.60;2.65;;;;;;;11.49;100.00;99054.88;4981895;28;20098;-92
2022/09/19 07:44:34;;;;;;;8.90;2.70;;;;;;;11.70;100.00;99051.22;5003408;28;21138;-92
2022/09/19 07:49:44;;;;;;;9.18;2.97;;;;;;;11.80;100.00;99044.16;4990714;28;20161;-95
2022/09/19 07:52:11;;;;;;;9.75;2.90;;;;;;;11.72;100.00;99049.47;4976585;28;20091;-92
2022/09/19 07:54:37;;;;;;;7.70;3.05;;;;;;;11.78;100.00;99052.00;4984769;28;20690;-92
2022/09/19 07:57:02;;;;;;;10.35;3.20;;;;;;;11.98;100.00;99053.59;4981662;28;20083;-91
2022/09/19 07:59:27;;;;;;;10.02;2.92;;;;;;;12.01;100.00;99050.97;4980299;28;20073;-92
2022/09/19 08:21:11;;;;;;;8.45;3.30;;;;;;;11.87;100.00;99065.88;4990584;28;20077;-94
2022/09/19 08:31:03;;;;;;;8.38;2.45;;;;;;;11.85;100.00;99076.34;4992430;28;20233;-95
2022/09/19 08:33:45;;;;;;;10.25;2.83;;;;;;;11.79;100.00;99077.28;4997936;28;20404;-91
2022/09/19 08:36:19;;;;;;;8.48;2.92;;;;;;;11.81;100.00;99072.03;4986160;28;20042;-91
2022/09/19 08:38:56;;;;;;;7.30;2.55;;;;;;;12.19;100.00;99080.41;4984986;28;20034;-91
2022/09/19 08:41:46;;;;;;;7.35;2.80;;;;;;;11.89;100.00;99077.19;4983029;28;20034;-91
2022/09/19 08:44:34;;;;;;;8.68;2.72;;;;;;;11.94;100.00;99073.69;4987919;28;20113;-92
2022/09/19 08:47:27;;;;;;;8.20;2.72;;;;;;;12.33;100.00;99072.41;4979123;28;20034;-92
2022/09/19 08:50:03;;;;;;;7.28;2.42;;;;;;;12.25;100.00;99085.59;4974985;28;20614;-91
2022/09/19 08:53:07;;;;;;;10.05;2.97;;;;;;;12.11;100.00;99076.13;4983496;28;20037;-91
2022/09/19 08:55:36;;;;;;;7.60;2.90;;;;;;;12.46;100.00;99087.97;4923141;29;20059;-93
2022/09/19 08:58:07;;;;;;;9.65;3.00;;;;;;;12.28;100.00;99082.94;4912582;29;20039;-91
2022/09/19 09:00:44;;;;;;;8.70;2.83;;;;;;;12.26;100.00;99096.03;4913269;29;20118;-92
2022/09/19 09:03:20;;;;;;;8.88;2.78;;;;;;;12.53;100.00;99098.38;4903527;29;20891;-92
2022/09/19 09:05:59;;;;;;;13.10;3.40;;;;;;;12.18;100.00;99108.31;4906071;29;20031;-91
2022/09/19 09:08:27;;;;;;;8.30;3.10;;;;;;;12.17;100.00;99106.56;4904342;29;20058;-91
2022/09/19 09:11:05;;;;;;;11.10;3.00;;;;;;;12.35;100.00;99096.81;4921796;29;20511;-90
2022/09/19 09:13:48;;;;;;;10.05;3.72;;;;;;;12.46;100.00;99097.56;4904598;29;20067;-90
2022/09/19 09:16:44;;;;;;;9.37;3.33;;;;;;;12.24;100.00;99086.47;4908893;29;20074;-91
2022/09/19 09:19:25;;;;;;;7.95;3.30;;;;;;;12.32;100.00;99094.22;4922035;29;20138;-90
2022/09/19 09:22:02;;;;;;;9.57;3.60;;;;;;;12.49;100.00;99104.53;4913562;29;20027;-91
2022/09/19 09:24:42;;;;;;;9.48;3.72;;;;;;;12.48;100.00;99108.00;4973925;28;20042;-91
2022/09/19 09:27:15;;;;;;;9.88;3.33;;;;;;;12.89;100.00;99097.03;4976915;28;20035;-92
2022/09/19 09:29:48;;;;;;;8.95;3.70;;;;;;;13.00;100.00;99101.25;5001494;28;20049;-93
2022/09/19 09:32:30;;;;;;;8.52;3.70;;;;;;;13.18;100.00;99110.63;4992049;28;20050;-92
2022/09/19 09:34:58;;;;;;;8.75;3.80;;;;;;;13.12;100.00;99108.94;5008918;28;20113;-93
2022/09/19 09:37:34;;;;;;;9.15;3.33;;;;;;;13.24;100.00;99106.16;4984758;28;20034;-93
2022/09/19 09:41:45;;;;;;;9.55;3.65;;;;;;;13.08;100.00;99120.34;4985493;28;20073;-91
2022/09/19 09:43:09;;;;;;;9.70;3.60;;;;;;;13.24;100.00;99111.41;4981307;28;20074;-90
2022/09/19 09:45:48;;;;;;;8.10;3.30;;;;;;;13.15;100.00;99108.91;4982824;28;20089;-92
2022/09/19 09:48:26;;;;;;;9.27;3.38;;;;;;;13.47;100.00;99110.22;4986663;28;20033;-91
2022/09/19 09:51:25;;;;;;;9.23;3.22;;;;;;;13.35;100.00;99111.28;4981385;28;20034;-91
2022/09/19 09:56:14;;;;;;;9.68;3.55;;;;;;;13.11;100.00;99112.44;4984736;28;20030;-91
2022/09/19 09:57:11;;;;;;;9.98;3.55;;;;;;;13.03;100.00;99104.72;4984053;28;20034;-91
2022/09/19 10:03:34;;;;;;;9.35;3.70;;;;;;;13.21;100.00;99111.44;4988628;28;20045;-91
2022/09/19 10:06:15;;;;;;;10.85;3.95;;;;;;;13.51;100.00;99117.16;4926308;29;20525;-92
2022/09/19 10:08:46;;;;;;;11.98;3.90;;;;;;;13.37;100.00;99117.34;4929117;29;20091;-91
2022/09/19 10:11:27;;;;;;;10.50;4.57;;;;;;;13.25;100.00;99114.88;4919473;29;20040;-92
2022/09/19 10:14:06;;;;;;;9.32;3.67;;;;;;;13.13;100.00;99105.47;4926110;29;20039;-92
2022/09/19 10:16:34;;;;;;;10.40;3.65;;;;;;;13.34;100.00;99108.66;4928752;29;20266;-92
2022/09/19 10:19:27;;;;;;;9.35;3.85;;;;;;;13.44;100.00;99112.91;4934592;29;20031;-91
2022/09/19 10:21:59;;;;;;;9.43;3.77;;;;;;;13.22;100.00;99112.31;4935376;29;20050;-91
2022/09/19 10:24:59;;;;;;;8.70;3.63;;;;;;;13.11;100.00;99110.72;4929620;29;20115;-92
2022/09/19 10:27:32;;;;;;;9.60;3.40;;;;;;;12.98;100.00;99110.03;4909009;29;20119;-91
2022/09/19 10:30:18;;;;;;;11.35;3.55;;;;;;;12.92;100.00;99115.31;4927737;29;20480;-91
2022/09/19 10:32:45;;;;;;;9.60;3.40;;;;;;;13.27;100.00;99111.34;4911435;29;20160;-91
2022/09/19 10:35:37;;;;;;;11.52;3.88;;;;;;;13.35;100.00;99113.00;4911967;29;20035;-92
2022/09/19 10:38:29;;;;;;;8.80;3.38;;;;;;;13.28;100.00;99110.47;4923796;28;20040;-92
2022/09/19 10:41:00;;;;;;;9.50;3.38;;;;;;;12.89;100.00;99112.75;4993464;28;20038;-91
2022/09/19 10:43:31;;;;;;;9.52;3.70;;;;;;;12.90;100.00;99114.50;4987213;28;20033;-92
2022/09/19 10:45:59;;;;;;;8.40;3.60;;;;;;;12.81;100.00;99109.38;4986099;28;20072;-92
2022/09/19 10:48:30;;;;;;;11.75;3.72;;;;;;;12.73;100.00;99116.44;4981137;28;20030;-92
2022/09/19 10:54:37;;;;;;;12.02;3.92;;;;;;;12.23;100.00;99110.88;4979603;28;20445;-90
2022/09/19 10:57:05;;;;;;;11.55;4.60;;;;;;;12.42;100.00;99107.19;4981228;28;20026;-91
2022/09/19 10:59:46;;;;;;;10.05;4.07;;;;;;;12.89;100.00;99111.91;4974721;28;20178;-91
2022/09/19 11:02:23;;;;;;;10.98;4.28;;;;;;;13.18;100.00;99108.00;4980955;28;20034;-91
2022/09/19 11:05:04;;;;;;;10.73;4.63;;;;;;;12.97;100.00;99112.63;4976086;28;20080;-92
2022/09/19 11:11:48;;;;;;;12.45;4.13;;;;;;;13.20;100.00;99117.56;4976946;28;20236;-92
2022/09/19 11:14:28;;;;;;;9.88;3.83;;;;;;;12.80;100.00;99121.59;5011033;28;20124;-89
2022/09/19 11:17:32;;;;;;;10.32;4.47;;;;;;;13.05;100.00;99115.16;4995647;28;20038;-91
2022/09/19 11:20:30;;;;;;;10.70;4.50;;;;;;;13.02;100.00;99116.06;4995495;28;20026;-91
2022/09/19 11:23:03;;;;;;;10.80;4.50;;;;;;;13.14;100.00;99120.28;4984485;28;20485;-89
2022/09/19 11:26:10;;;;;;;9.23;4.38;;;;;;;12.38;100.00;99115.94;4989341;28;20046;-90
2022/09/19 11:29:12;;;;;;;10.85;4.50;;;;;;;12.44;100.00;99115.91;4995352;28;20045;-90
2022/09/19 11:32:12;;;;;;;12.35;4.88;;;;;;;12.32;100.00;99120.38;4994011;28;20045;-92
2022/09/19 11:41:59;;;;;;;10.75;4.70;;;;;;;12.67;100.00;99127.84;5014897;28;20096;-90
2022/09/19 11:45:06;;;;;;;12.27;4.78;;;;;;;12.66;100.00;99125.25;4995020;28;20033;-91
2022/09/19 11:48:02;;;;;;;13.50;5.32;;;;;;;12.64;100.00;99126.13;5005679;28;20045;-90
2022/09/19 11:50:50;;;;;;;10.90;4.80;;;;;;;12.45;100.00;99122.84;4995643;28;20072;-91
2022/09/19 11:53:53;;;;;;;11.27;4.95;;;;;;;12.61;100.00;99130.53;5012490;28;20038;-91
2022/09/19 11:56:44;;;;;;;14.43;4.38;;;;;;;12.70;100.00;99124.34;4998101;28;20026;-93
2022/09/19 11:59:36;;;;;;;10.05;4.65;;;;;;;12.95;100.00;99125.75;5007342;28;20068;-91
2022/09/19 12:02:44;;;;;;;11.18;5.22;;;;;;;13.00;100.00;99130.06;4997101;28;20068;-91
2022/09/19 12:05:29;;;;;;;9.82;4.43;;;;;;;12.68;100.00;99134.81;4977154;28;20039;-91
2022/09/19 12:08:28;;;;;;;9.35;3.70;;;;;;;12.46;100.00;99131.56;4966385;28;20042;-91
2022/09/19 12:11:31;;;;;;;8.55;3.70;;;;;;;12.37;100.00;99118.59;4974648;28;20030;-92
2022/09/19 12:14:02;;;;;;;10.15;3.80;;;;;;;12.29;100.00;99130.00;4927346;29;20047;-92
2022/09/19 12:16:44;;;;;;;9.60;4.07;;;;;;;12.31;100.00;99124.75;4927659;29;20040;-92
2022/09/19 12:19:28;;;;;;;11.65;4.38;;;;;;;12.37;100.00;99126.44;4922051;29;20064;-91
2022/09/19 12:22:24;;;;;;;10.85;4.50;;;;;;;12.78;100.00;99119.88;4936073;29;20044;-93
2022/09/19 12:25:18;;;;;;;9.52;4.07;;;;;;;12.79;100.00;99138.19;4923695;29;20133;-94
2022/09/19 12:28:07;;;;;;;11.57;4.45;;;;;;;12.88;100.00;99123.25;4918926;29;20044;-93
2022/09/19 12:31:06;;;;;;;12.02;4.35;;;;;;;12.62;100.00;99120.06;4928361;29;20040;-93
2022/09/19 12:33:49;;;;;;;11.23;4.95;;;;;;;12.70;100.00;99124.34;4923895;29;20059;-92
2022/09/19 12:37:00;;;;;;;11.18;4.55;;;;;;;13.36;100.00;99126.13;4921588;29;20040;-92
2022/09/19 12:40:10;;;;;;;10.90;4.90;;;;;;;13.71;100.00;99127.34;4923791;29;20157;-93
2022/09/19 12:43:01;;;;;;;10.95;4.65;;;;;;;13.91;100.00;99120.91;4929937;28;20103;-92
2022/09/19 12:49:12;;;;;;;10.82;5.32;;;;;;;14.40;100.00;99127.03;4954849;28;20043;-92
2022/09/19 12:51:49;;;;;;;10.70;4.90;;;;;;;13.96;100.00;99124.31;4965584;28;20071;-93
2022/09/19 12:54:36;;;;;;;13.18;6.03;;;;;;;14.03;100.00;99125.94;4976960;28;20035;-93
2022/09/19 12:57:09;;;;;;;12.90;5.65;;;;;;;14.13;100.00;99122.25;4995840;28;20027;-92
2022/09/19 12:59:36;;;;;;;10.98;5.25;;;;;;;14.16;100.00;99137.06;4976053;28;20042;-92
2022/09/19 13:02:18;;;;;;;11.10;5.05;;;;;;;14.06;100.00;99125.03;4978043;28;20062;-92
2022/09/19 13:05:13;;;;;;;9.55;5.05;;;;;;;14.49;100.00;99132.97;4992607;28;20039;-93
2022/09/19 13:07:46;;;;;;;13.55;5.20;;;;;;;14.80;100.00;99116.66;4977531;28;20027;-91
2022/09/19 13:10:12;;;;;;;;;;;;;;;14.61;100.00;99131.88;4980137;28;20037;-92
2022/09/19 13:12:59;;;;;;;10.10;4.40;;;;;;;14.84;100.00;99131.44;4991431;28;19971;-92
2022/09/19 13:15:42;;;;;;;10.00;4.70;;;;;;;14.54;100.00;99121.53;4997671;28;20037;-91
2022/09/19 13:23:59;;;;;;;10.73;4.55;;;;;;;14.72;100.00;99133.47;5013771;28;20076;-93
2022/09/19 13:26:35;;;;;;;12.43;5.82;;;;;;;15.00;100.00;99126.75;4995782;28;20069;-93
2022/09/19 13:29:46;;;;;;;13.55;6.25;;;;;;;15.35;100.00;99135.63;4996031;28;20052;-92